Time;durP1;ratioP1;P1;durP2;ratioP2;P2;SDS_P1;SDS_P2;PMS_P1;PMS_P2;Temp;Humidity;BMP_temperature;BMP_pressure;BME280_temperature;BME280_humidity;BME280_pressure;Samples;Min_cycle;Max_cycle;Signal;HPM_P1;HPM_P2
2022/12/12 00:00:12;;;;;;;39.60;22.17;;;;;;;-2.77;88.17;99052.02;2078361;83;20984;-76
2022/12/12 00:03:14;;;;;;;38.70;21.90;;;;;;;-2.77;88.12;99052.50;2082506;83;20996;-76
2022/12/12 00:06:15;;;;;;;43.78;21.65;;;;;;;-2.76;88.16;99047.66;2077141;83;21084;-75
2022/12/12 00:09:16;;;;;;;42.85;22.60;;;;;;;-2.77;88.22;99053.32;2085431;83;21539;-76
2022/12/12 00:12:18;;;;;;;40.88;21.48;;;;;;;-2.78;88.25;99052.15;2082770;83;21610;-76
2022/12/12 00:15:19;;;;;;;38.28;21.60;;;;;;;-2.80;88.28;99048.34;2075259;83;22209;-76
2022/12/12 00:18:20;;;;;;;42.43;22.73;;;;;;;-2.82;88.34;99042.42;2079506;83;21040;-77
2022/12/12 00:21:25;;;;;;;37.58;20.12;;;;;;;-2.81;88.48;99048.47;2079672;83;21035;-76
2022/12/12 00:24:26;;;;;;;40.08;22.25;;;;;;;-2.81;88.48;99042.80;2094512;84;21116;-76
2022/12/12 00:27:27;;;;;;;41.25;21.73;;;;;;;-2.83;88.42;99036.88;2093474;84;20975;-76
2022/12/12 00:30:29;;;;;;;46.02;23.15;;;;;;;-2.85;88.44;99050.44;2073654;84;21008;-76
2022/12/12 00:33:30;;;;;;;42.17;22.40;;;;;;;-2.86;88.52;99047.48;2091545;84;21081;-76
2022/12/12 00:36:31;;;;;;;41.83;22.65;;;;;;;-2.87;88.58;99049.73;2094320;84;21034;-76
2022/12/12 00:39:33;;;;;;;41.00;22.98;;;;;;;-2.87;88.59;99050.17;2095131;84;20994;-76
2022/12/12 00:42:35;;;;;;;42.15;22.75;;;;;;;-2.92;88.72;99049.22;2093383;84;21135;-76
2022/12/12 00:45:37;;;;;;;47.15;24.55;;;;;;;-2.94;88.79;99048.02;2095678;84;21057;-76
2022/12/12 00:48:38;;;;;;;45.03;22.77;;;;;;;-2.93;88.83;99056.63;2092447;84;21068;-76
2022/12/12 00:51:39;;;;;;;48.52;26.15;;;;;;;-2.92;88.85;99060.91;2091263;84;21327;-76
2022/12/12 00:54:41;;;;;;;45.40;24.00;;;;;;;-2.92;88.95;99056.19;2102070;84;21079;-76
2022/12/12 00:57:42;;;;;;;41.80;22.85;;;;;;;-2.92;89.01;99059.61;2110562;83;21033;-76
2022/12/12 01:00:43;;;;;;;47.48;23.80;;;;;;;-2.91;89.03;99057.36;2120143;82;21074;-76
2022/12/12 01:03:45;;;;;;;43.25;22.82;;;;;;;-2.90;89.09;99060.78;2111305;84;21113;-76
2022/12/12 01:06:46;;;;;;;48.87;24.12;;;;;;;-2.90;89.12;99060.78;2114462;83;21141;-76
2022/12/12 01:09:48;;;;;;;45.90;22.98;;;;;;;-2.88;89.17;99066.70;2111427;83;21108;-76
2022/12/12 01:12:49;;;;;;;43.45;23.12;;;;;;;-2.88;89.17;99075.78;2079987;84;21573;-75
2022/12/12 01:15:51;;;;;;;43.55;20.40;;;;;;;-2.90;89.17;99075.91;2085631;84;21141;-75
2022/12/12 01:18:52;;;;;;;39.85;21.90;;;;;;;-2.89;89.22;99068.95;2117236;82;21087;-76
2022/12/12 01:21:53;;;;;;;41.88;22.07;;;;;;;-2.89;89.23;99073.66;2112966;82;21563;-76
2022/12/12 01:24:55;;;;;;;43.68;22.27;;;;;;;-2.89;89.29;99069.77;2123619;82;21042;-76
2022/12/12 01:27:58;;;;;;;41.48;22.98;;;;;;;-2.88;89.34;99060.21;2101364;84;21466;-76
2022/12/12 01:30:59;;;;;;;39.50;20.37;;;;;;;-2.90;89.38;99068.12;2117226;83;21092;-76
2022/12/12 01:34:01;;;;;;;43.73;22.32;;;;;;;-2.91;89.42;99074.70;2115475;83;20981;-76
2022/12/12 01:37:01;;;;;;;41.90;21.87;;;;;;;-2.89;89.50;99059.86;2115460;83;21530;-76
2022/12/12 01:40:06;;;;;;;44.42;22.48;;;;;;;-2.90;89.43;99061.63;2113370;83;21031;-76
2022/12/12 01:43:13;;;;;;;42.65;22.82;;;;;;;-2.88;89.54;99060.21;2112721;83;21722;-76
2022/12/12 01:46:41;;;;;;;41.98;21.52;;;;;;;-2.87;89.61;99061.86;2109367;83;21109;-75
2022/12/12 01:49:46;;;;;;;41.80;22.27;;;;;;;-2.85;89.68;99062.12;2117203;83;21076;-76
2022/12/12 01:52:49;;;;;;;44.30;23.12;;;;;;;-2.87;89.59;99057.52;2110737;83;21106;-76
2022/12/12 01:55:53;;;;;;;40.85;21.85;;;;;;;-2.87;89.58;99061.41;2098773;83;21119;-76
2022/12/12 01:58:55;;;;;;;40.15;21.77;;;;;;;-2.86;89.61;99060.94;2090871;84;21041;-76
2022/12/12 02:01:56;;;;;;;37.13;20.48;;;;;;;-2.86;89.65;99056.57;2080893;84;21068;-76
2022/12/12 02:05:01;;;;;;;44.18;21.97;;;;;;;-2.85;89.62;99060.81;2107327;83;21573;-75
2022/12/12 02:08:05;;;;;;;35.65;19.77;;;;;;;-2.84;89.68;99052.11;2105573;84;21055;-76
2022/12/12 02:11:06;;;;;;;38.88;21.12;;;;;;;-2.83;89.67;99057.66;2082092;84;21064;-75
2022/12/12 02:14:08;;;;;;;39.67;21.12;;;;;;;-2.83;89.65;99058.95;2070457;84;21045;-76
2022/12/12 02:17:48;;;;;;;36.40;20.10;;;;;;;-2.82;89.73;99055.41;2108003;84;21628;-76
2022/12/12 02:21:24;;;;;;;25.52;13.75;;;;;;;-2.79;89.68;99065.61;2108919;84;21121;-76
2022/12/12 02:24:58;;;;;;;38.08;21.02;;;;;;;-2.77;89.72;99061.58;2079680;84;21061;-76
2022/12/12 02:28:29;;;;;;;35.92;18.95;;;;;;;-2.77;89.82;99063.70;2113798;83;21633;-76
2022/12/12 02:31:48;;;;;;;36.55;19.35;;;;;;;-2.76;89.76;99058.89;2099690;84;21158;-77
2022/12/12 02:35:12;;;;;;;38.38;19.35;;;;;;;-2.75;89.75;99059.25;2116668;83;21534;-76
2022/12/12 02:38:25;;;;;;;32.75;18.85;;;;;;;-2.74;89.72;99054.88;2100779;83;21070;-76
2022/12/12 02:41:40;;;;;;;29.63;17.37;;;;;;;-2.74;89.71;99050.50;2089509;84;20998;-77
2022/12/12 02:44:53;;;;;;;34.90;17.27;;;;;;;-2.70;89.76;99048.55;2065892;84;21054;-76
2022/12/12 02:48:12;;;;;;;34.50;18.20;;;;;;;-2.69;89.76;99057.16;2100332;84;21129;-76
2022/12/12 02:51:15;;;;;;;36.08;18.75;;;;;;;-2.69;89.65;99062.35;2099948;84;21879;-76
2022/12/12 02:54:20;;;;;;;34.18;19.00;;;;;;;-2.69;89.69;99063.17;2098349;84;21058;-76
2022/12/12 02:57:25;;;;;;;34.08;18.62;;;;;;;-2.68;89.64;99064.82;2087780;83;21588;-76
2022/12/12 03:00:29;;;;;;;36.83;19.02;;;;;;;-2.68;89.64;99065.30;2090213;84;21042;-76
2022/12/12 03:07:46;;;;;;;36.05;19.30;;;;;;;-2.66;89.73;99064.73;2087454;84;21081;-76
2022/12/12 03:11:07;;;;;;;37.00;19.02;;;;;;;-2.67;89.68;99066.98;2092116;84;21149;-76
2022/12/12 03:14:26;;;;;;;40.05;19.60;;;;;;;-2.66;89.71;99064.73;2113441;83;21061;-76
2022/12/12 03:17:35;;;;;;;39.18;20.50;;;;;;;-2.65;89.78;99060.70;2116577;83;21065;-76
2022/12/12 03:20:45;;;;;;;37.53;20.35;;;;;;;-2.65;89.66;99065.91;2109254;83;21568;-76
2022/12/12 03:23:51;;;;;;;38.20;19.48;;;;;;;-2.65;89.69;99063.30;2103716;83;21026;-76
2022/12/12 03:27:09;;;;;;;36.98;20.10;;;;;;;-2.63;89.76;99060.61;2116247;83;21010;-76
2022/12/12 03:30:14;;;;;;;42.55;20.90;;;;;;;-2.62;89.67;99062.27;2106222;83;21014;-76
2022/12/12 03:33:33;;;;;;;43.68;22.13;;;;;;;-2.63;89.60;99058.02;2116188;83;21043;-76
2022/12/12 03:36:55;;;;;;;44.77;21.52;;;;;;;-2.62;89.60;99059.66;2111166;83;20986;-76
2022/12/12 03:40:02;;;;;;;42.40;20.37;;;;;;;-2.63;89.62;99058.84;2094955;83;21666;-76
2022/12/12 03:43:08;;;;;;;42.30;20.65;;;;;;;-2.62;89.60;99056.63;2109335;83;21089;-76
2022/12/12 03:46:20;;;;;;;39.33;20.60;;;;;;;-2.62;89.61;99046.23;2109460;83;21114;-76
2022/12/12 03:49:35;;;;;;;44.85;21.82;;;;;;;-2.61;89.60;99044.46;2109461;83;21360;-76
2022/12/12 03:52:46;;;;;;;46.77;22.62;;;;;;;-2.61;89.61;99045.76;2112114;83;21129;-76
2022/12/12 03:56:05;;;;;;;43.42;20.27;;;;;;;-2.60;89.64;99034.42;2103845;83;21038;-76
2022/12/12 03:59:32;;;;;;;41.10;21.17;;;;;;;-2.58;89.61;99040.34;2092707;84;21544;-76
2022/12/12 04:02:41;;;;;;;47.05;22.58;;;;;;;-2.58;89.60;99044.23;2088799;84;21468;-76
2022/12/12 04:06:28;;;;;;;44.35;21.62;;;;;;;-2.57;89.65;99044.11;2092967;84;21016;-76
2022/12/12 04:13:21;;;;;;;35.00;17.82;;;;;;;-2.57;89.70;99035.50;2077336;84;21540;-76
2022/12/12 04:16:29;;;;;;;45.88;20.02;;;;;;;-2.59;89.62;99037.37;2092376;84;21071;-76
2022/12/12 04:23:16;;;;;;;48.70;21.90;;;;;;;-2.60;89.70;99043.03;2053527;84;21046;-75
2022/12/12 04:26:40;;;;;;;47.88;21.48;;;;;;;-2.61;89.62;99036.19;2079501;84;20993;-75
2022/12/12 04:29:56;;;;;;;44.85;21.35;;;;;;;-2.61;89.68;99047.06;2105264;83;21003;-76
2022/12/12 04:33:05;;;;;;;43.40;19.48;;;;;;;-2.61;89.71;99045.76;2079906;84;21633;-76
2022/12/12 04:36:09;;;;;;;44.00;20.68;;;;;;;-2.59;89.71;99047.75;2083873;84;21179;-76
2022/12/12 04:39:12;;;;;;;44.53;21.57;;;;;;;-2.60;89.69;99043.51;2084618;84;21071;-75
2022/12/12 04:42:18;;;;;;;50.92;22.27;;;;;;;-2.60;89.67;99052.12;2088857;84;20991;-75
2022/12/12 04:45:24;;;;;;;41.98;20.72;;;;;;;-2.60;89.70;99044.33;2090158;84;21120;-75
2022/12/12 04:48:36;;;;;;;43.75;21.50;;;;;;;-2.58;89.80;99042.94;2085497;84;21644;-76
2022/12/12 04:51:42;;;;;;;41.23;20.70;;;;;;;-2.57;89.83;99047.19;2095545;83;21097;-76
2022/12/12 04:54:58;;;;;;;34.50;18.77;;;;;;;-2.56;89.78;99046.23;2083366;84;21053;-76
2022/12/12 04:58:02;;;;;;;42.83;20.32;;;;;;;-2.57;89.76;99044.11;2113202;83;21058;-76
2022/12/12 05:01:52;;;;;;;40.98;20.60;;;;;;;-2.57;89.78;99035.50;2077836;85;21057;-76
2022/12/12 05:05:02;;;;;;;40.63;20.77;;;;;;;-2.57;89.76;99037.62;2102450;84;20991;-76
2022/12/12 05:08:11;;;;;;;39.35;19.57;;;;;;;-2.58;89.83;99041.17;2067958;84;21058;-76
2022/12/12 05:11:14;;;;;;;41.05;19.98;;;;;;;-2.56;89.85;99035.84;2117188;83;21030;-75
2022/12/12 05:14:16;;;;;;;41.42;20.60;;;;;;;-2.58;89.87;99035.97;2118927;83;21033;-76
2022/12/12 05:17:23;;;;;;;37.23;19.27;;;;;;;-2.58;89.88;99028.18;2117549;83;21045;-76
2022/12/12 05:20:24;;;;;;;40.60;20.57;;;;;;;-2.58;89.92;99039.87;2120497;83;20996;-76
2022/12/12 05:23:25;;;;;;;39.15;19.52;;;;;;;-2.58;89.94;99041.64;2112032;83;21006;-75
2022/12/12 05:26:30;;;;;;;43.50;21.52;;;;;;;-2.57;89.96;99045.88;2117186;83;20970;-75
2022/12/12 05:29:32;;;;;;;46.00;21.95;;;;;;;-2.55;89.99;99039.64;2090591;83;21029;-77
2022/12/12 05:32:33;;;;;;;45.67;21.80;;;;;;;-2.53;90.00;99040.84;2120618;83;21120;-76
2022/12/12 05:35:35;;;;;;;40.05;20.57;;;;;;;-2.51;90.07;99035.88;2113727;83;21051;-80
2022/12/12 05:38:37;;;;;;;44.48;20.97;;;;;;;-2.51;90.04;99035.05;2117664;83;20990;-82
2022/12/12 05:41:38;;;;;;;40.33;20.55;;;;;;;-2.52;90.04;99037.30;2116759;83;21061;-76
2022/12/12 05:44:39;;;;;;;40.23;20.40;;;;;;;-2.51;90.13;99035.88;2121627;83;21075;-77
2022/12/12 05:47:40;;;;;;;44.63;19.75;;;;;;;-2.52;90.12;99043.80;2121851;83;20998;-78
2022/12/12 05:50:41;;;;;;;42.62;20.88;;;;;;;-2.52;90.09;99047.69;2121067;83;21088;-78
2022/12/12 05:53:42;;;;;;;43.05;19.95;;;;;;;-2.52;90.06;99036.83;2119687;83;20979;-77
2022/12/12 05:56:44;;;;;;;42.48;20.57;;;;;;;-2.51;90.07;99038.47;2115149;83;21537;-80
2022/12/12 05:59:46;;;;;;;41.95;20.25;;;;;;;-2.52;90.02;99036.83;2121080;83;21077;-79
2022/12/12 06:02:47;;;;;;;39.55;19.00;;;;;;;-2.50;90.03;99044.52;2118518;83;21096;-78
2022/12/12 06:05:48;;;;;;;42.53;20.57;;;;;;;-2.49;90.05;99051.36;2122143;83;21050;-79
2022/12/12 06:08:50;;;;;;;40.75;20.48;;;;;;;-2.48;90.05;99050.41;2118483;83;21037;-80
2022/12/12 06:11:51;;;;;;;40.08;19.92;;;;;;;-2.47;90.09;99046.89;2123023;83;21025;-76
2022/12/12 06:14:52;;;;;;;42.23;21.00;;;;;;;-2.47;90.07;99050.80;2119672;83;21168;-79
2022/12/12 06:17:53;;;;;;;40.30;20.55;;;;;;;-2.44;90.12;99045.84;2123344;83;21104;-78
2022/12/12 06:21:01;;;;;;;38.30;18.77;;;;;;;-2.43;90.14;99058.71;2120546;83;21073;-79
2022/12/12 06:24:05;;;;;;;36.42;18.73;;;;;;;-2.42;90.05;99065.59;2113098;83;21027;-78
2022/12/12 06:27:06;;;;;;;38.17;19.05;;;;;;;-2.41;90.04;99066.41;2121786;83;21041;-78
2022/12/12 06:30:09;;;;;;;43.10;19.45;;;;;;;-2.40;90.03;99063.69;2124866;83;20978;-79
2022/12/12 06:33:10;;;;;;;38.55;19.02;;;;;;;-2.38;90.06;99068.31;2115596;83;21035;-78
2022/12/12 06:36:22;;;;;;;41.83;20.77;;;;;;;-2.36;90.06;99068.22;2120269;83;21061;-78
2022/12/12 06:39:19;;;;;;;39.78;19.15;;;;;;;-2.37;90.03;99064.77;2122350;83;21054;-78
2022/12/12 06:42:20;;;;;;;43.05;21.20;;;;;;;-2.36;90.09;99066.44;2118598;83;21596;-79
2022/12/12 06:45:21;;;;;;;38.53;20.65;;;;;;;-2.39;90.09;99062.77;2118755;83;22163;-79
2022/12/12 06:48:23;;;;;;;39.83;19.85;;;;;;;-2.40;90.17;99068.88;2120673;83;21600;-78
2022/12/12 06:51:36;;;;;;;42.08;21.40;;;;;;;-2.39;90.20;99074.90;2121399;83;21002;-79
2022/12/12 06:54:36;;;;;;;43.33;20.05;;;;;;;-2.38;90.26;99076.58;2118482;83;20958;-78
2022/12/12 06:57:37;;;;;;;36.10;20.27;;;;;;;-2.36;90.30;99066.91;2121838;83;21053;-79
2022/12/12 07:00:38;;;;;;;40.65;19.70;;;;;;;-2.35;90.38;99075.88;2118133;83;21014;-78
2022/12/12 07:03:40;;;;;;;42.17;20.10;;;;;;;-2.35;90.34;99075.88;2120712;83;21017;-79
2022/12/12 07:06:41;;;;;;;37.88;19.70;;;;;;;-2.34;90.32;99073.63;2119431;83;20997;-79
2022/12/12 07:09:42;;;;;;;36.68;19.45;;;;;;;-2.31;90.38;99067.39;2118777;83;21058;-78
2022/12/12 07:12:44;;;;;;;43.38;20.37;;;;;;;-2.31;90.38;99076.48;2118049;83;20971;-79
2022/12/12 07:15:48;;;;;;;36.50;19.35;;;;;;;-2.32;90.40;99079.55;2120858;83;21052;-78
2022/12/12 07:18:50;;;;;;;40.55;20.43;;;;;;;-2.29;90.48;99078.03;2115980;83;21003;-79
2022/12/12 07:21:51;;;;;;;38.78;20.32;;;;;;;-2.30;90.50;99082.88;2115721;83;21551;-79
2022/12/12 07:24:52;;;;;;;34.73;18.70;;;;;;;-2.29;90.58;99081.93;2117492;83;21030;-78
2022/12/12 07:27:53;;;;;;;35.20;19.37;;;;;;;-2.26;90.63;99082.18;2118608;83;21060;-78
2022/12/12 07:30:54;;;;;;;36.83;20.57;;;;;;;-2.25;90.65;99078.66;2121886;83;21025;-78
2022/12/12 07:33:55;;;;;;;40.33;21.12;;;;;;;-2.23;90.70;99085.03;2122901;83;21064;-78
2022/12/12 07:36:56;;;;;;;44.40;21.20;;;;;;;-2.20;90.75;99086.93;2119608;83;20968;-78
2022/12/12 07:39:57;;;;;;;39.48;20.75;;;;;;;-2.17;90.79;99084.58;2123594;83;21041;-78
2022/12/12 07:42:59;;;;;;;39.85;20.15;;;;;;;-2.15;90.80;99078.81;2118995;83;21050;-77
2022/12/12 07:46:01;;;;;;;36.90;20.00;;;;;;;-2.14;90.77;99089.55;2120994;83;21023;-77
2022/12/12 07:49:02;;;;;;;38.95;19.98;;;;;;;-2.14;90.76;99090.86;2123415;83;21041;-77
2022/12/12 07:52:04;;;;;;;37.33;21.07;;;;;;;-2.12;90.75;99096.78;2117399;83;21562;-77
2022/12/12 07:55:06;;;;;;;35.48;19.85;;;;;;;-2.09;90.81;99093.95;2115312;83;21082;-77
2022/12/12 07:58:07;;;;;;;39.98;21.07;;;;;;;-2.08;90.79;99091.73;2097973;83;21066;-77
2022/12/12 08:01:15;;;;;;;40.33;21.17;;;;;;;-2.07;90.82;99090.78;2127305;83;20989;-77
2022/12/12 08:09:26;;;;;;;40.52;21.25;;;;;;;-2.04;90.92;99097.88;2103169;82;21009;-78
2022/12/12 08:12:29;;;;;;;37.10;20.17;;;;;;;-1.99;91.03;99098.86;2088384;84;21104;-78
2022/12/12 08:15:31;;;;;;;37.83;19.48;;;;;;;-1.95;91.04;99097.68;2105195;82;21086;-77
2022/12/12 08:18:32;;;;;;;40.90;19.52;;;;;;;-1.93;91.03;99099.70;2097805;82;21013;-77
2022/12/12 08:21:34;;;;;;;33.85;19.15;;;;;;;-1.89;91.07;99098.52;2099919;84;21128;-77
2022/12/12 08:24:35;;;;;;;36.58;19.35;;;;;;;-1.86;91.14;99102.23;2111186;84;21545;-77
2022/12/12 08:27:36;;;;;;;33.98;18.90;;;;;;;-1.85;91.07;99101.27;2126751;83;21046;-77
2022/12/12 08:30:37;;;;;;;34.18;19.12;;;;;;;-1.84;91.04;99096.42;2125065;82;20987;-77
2022/12/12 08:33:38;;;;;;;32.88;17.98;;;;;;;-1.83;91.02;99103.30;2127424;83;20998;-77
2022/12/12 08:36:39;;;;;;;37.05;18.55;;;;;;;-1.82;91.02;99100.22;2126978;83;21025;-78
2022/12/12 08:39:41;;;;;;;34.63;17.98;;;;;;;-1.82;91.08;99106.25;2121201;83;21613;-77
2022/12/12 08:42:42;;;;;;;51.42;21.23;;;;;;;-1.79;91.08;99109.09;2122514;83;21046;-78
2022/12/12 08:45:44;;;;;;;48.45;19.98;;;;;;;-1.79;91.07;99112.99;2096362;84;20986;-77
2022/12/12 08:48:47;;;;;;;42.85;19.90;;;;;;;-1.75;91.09;99113.11;2093977;83;21073;-78
2022/12/12 08:51:50;;;;;;;41.63;19.45;;;;;;;-1.75;91.11;99116.19;2113235;83;21781;-77
2022/12/12 08:54:51;;;;;;;45.23;21.55;;;;;;;-1.72;91.16;99123.77;2102068;84;21516;-78
2022/12/12 08:57:54;;;;;;;44.00;20.72;;;;;;;-1.68;91.18;99117.41;2095482;83;21109;-77
2022/12/12 09:00:55;;;;;;;46.30;20.72;;;;;;;-1.68;91.08;99125.22;2087190;83;21646;-77
2022/12/12 09:03:57;;;;;;;49.15;20.97;;;;;;;-1.65;91.03;99117.19;2096930;83;21105;-77
2022/12/12 09:06:58;;;;;;;41.50;20.75;;;;;;;-1.62;91.07;99123.45;2087132;83;21284;-77
2022/12/12 09:09:59;;;;;;;44.08;20.23;;;;;;;-1.59;91.05;99120.14;2088379;83;20998;-77
2022/12/12 09:13:01;;;;;;;45.45;21.15;;;;;;;-1.56;90.97;99117.80;2092613;84;21092;-77
2022/12/12 09:16:02;;;;;;;42.45;19.27;;;;;;;-1.49;91.04;99114.25;2068572;84;21582;-77
2022/12/12 09:19:03;;;;;;;42.78;19.57;;;;;;;-1.46;90.85;99110.97;2085330;83;21069;-77
2022/12/12 09:22:05;;;;;;;38.08;19.25;;;;;;;-1.46;90.73;99117.95;2088887;84;21076;-77
2022/12/12 09:25:06;;;;;;;45.28;18.70;;;;;;;-1.46;90.71;99120.08;2090370;84;21488;-77
2022/12/12 09:28:07;;;;;;;38.58;19.07;;;;;;;-1.42;90.74;99121.97;2088919;83;21029;-78
2022/12/12 09:31:11;;;;;;;35.45;18.52;;;;;;;-1.37;90.78;99119.38;2085810;83;21065;-77
2022/12/12 09:34:12;;;;;;;34.88;18.05;;;;;;;-1.36;90.64;99122.33;2088104;83;21025;-78
2022/12/12 09:37:14;;;;;;;31.45;17.60;;;;;;;-1.35;90.60;99117.98;2090299;83;21544;-78
2022/12/12 09:40:23;;;;;;;34.43;19.23;;;;;;;-1.34;90.56;99125.30;2095051;84;21095;-77
2022/12/12 09:43:29;;;;;;;34.92;18.80;;;;;;;-1.32;90.56;99124.70;2092087;84;21065;-78
2022/12/12 09:46:49;;;;;;;33.60;19.35;;;;;;;-1.29;90.61;99121.89;2083538;84;21080;-77
2022/12/12 09:49:54;;;;;;;34.85;20.00;;;;;;;-1.29;90.66;99121.89;2091700;84;21096;-83
2022/12/12 09:53:00;;;;;;;38.50;20.45;;;;;;;-1.27;90.65;99125.19;2095141;83;21136;-79
2022/12/12 09:56:15;;;;;;;36.15;21.20;;;;;;;-1.28;90.59;99130.05;2087070;84;21676;-79
2022/12/12 09:59:31;;;;;;;32.80;18.73;;;;;;;-1.25;90.68;99123.30;2102378;83;21002;-80
2022/12/12 10:02:56;;;;;;;37.28;19.50;;;;;;;-1.22;90.68;99119.98;2071889;85;21109;-82
2022/12/12 10:06:07;;;;;;;37.15;21.87;;;;;;;-1.20;90.65;99122.48;2104327;84;21470;-84
2022/12/12 10:09:34;;;;;;;;;;;;;;;-1.16;90.68;99116.09;2095175;84;21551;-83
2022/12/12 10:12:37;;;;;;;34.85;19.62;;;;;;;-1.12;90.65;99116.70;2097956;83;20172;-84
2022/12/12 10:15:43;;;;;;;36.10;20.43;;;;;;;-1.07;90.69;99126.27;2102436;84;21057;-84
2022/12/12 10:18:51;;;;;;;34.15;19.20;;;;;;;-1.07;90.60;99123.22;2100693;84;21495;-85
2022/12/12 10:21:56;;;;;;;36.08;21.17;;;;;;;-1.06;90.56;99127.47;2101332;84;21533;-83
2022/12/12 10:25:09;;;;;;;36.13;19.75;;;;;;;-1.03;90.64;99127.23;2101395;84;21040;-83
2022/12/12 10:28:16;;;;;;;39.53;20.25;;;;;;;-0.97;90.61;99127.23;2098078;83;21048;-83
2022/12/12 10:31:47;;;;;;;34.03;18.40;;;;;;;-0.93;90.56;99115.63;2094995;83;22477;-82
2022/12/12 10:35:01;;;;;;;39.30;20.75;;;;;;;-0.89;90.47;99127.96;2065466;84;21046;-82
2022/12/12 10:38:27;;;;;;;36.30;19.65;;;;;;;-0.81;90.47;99126.90;2093387;84;21490;-81
2022/12/12 10:41:46;;;;;;;32.05;18.77;;;;;;;-0.76;90.27;99122.99;2117718;83;21062;-81
2022/12/12 10:45:15;;;;;;;35.68;17.42;;;;;;;-0.69;90.22;99126.76;2069514;83;21080;-81
2022/12/12 10:48:16;;;;;;;32.83;17.87;;;;;;;-0.67;89.94;99130.56;2092400;83;21038;-81
2022/12/12 10:51:21;;;;;;;37.85;18.60;;;;;;;-0.67;89.87;99116.23;2110964;82;21054;-81
2022/12/12 10:54:27;;;;;;;35.63;19.42;;;;;;;-0.64;89.95;99127.72;2112037;83;21105;-81
2022/12/12 10:57:34;;;;;;;38.63;18.15;;;;;;;-0.60;89.87;99130.42;2112372;82;21051;-81
2022/12/12 11:00:42;;;;;;;35.25;17.98;;;;;;;-0.59;89.71;99121.68;2094903;84;21488;-81
2022/12/12 11:03:56;;;;;;;32.13;17.02;;;;;;;-0.61;89.42;99127.47;2126343;83;20935;-81
2022/12/12 11:06:57;;;;;;;32.15;17.80;;;;;;;-0.62;89.45;99125.83;2132719;83;20991;-81
2022/12/12 11:09:58;;;;;;;32.80;18.10;;;;;;;-0.61;89.38;99126.17;2122095;83;21009;-81
2022/12/12 11:13:11;;;;;;;33.70;17.40;;;;;;;-0.58;89.49;99127.23;2129683;83;21556;-82
2022/12/12 11:16:23;;;;;;;35.50;17.10;;;;;;;-0.54;89.35;99126.51;2125629;83;21066;-80
2022/12/12 11:19:26;;;;;;;31.48;17.85;;;;;;;-0.50;89.35;99127.46;2123161;82;21092;-80
2022/12/12 11:22:31;;;;;;;32.48;18.12;;;;;;;-0.44;89.42;99125.33;2128145;82;21082;-81
2022/12/12 11:25:33;;;;;;;30.37;17.35;;;;;;;-0.37;89.29;99121.27;2120849;82;21899;-81
2022/12/12 11:28:37;;;;;;;33.80;18.07;;;;;;;-0.32;89.13;99117.83;2117083;83;20964;-81
2022/12/12 11:31:39;;;;;;;33.15;15.88;;;;;;;-0.25;89.13;99120.31;2119702;83;22212;-80
2022/12/12 11:34:49;;;;;;;27.82;16.10;;;;;;;-0.17;88.84;99118.38;2096758;83;21034;-80
2022/12/12 11:37:58;;;;;;;25.20;15.78;;;;;;;-0.07;88.90;99123.22;2118290;82;21061;-81
2022/12/12 11:41:04;;;;;;;27.17;14.70;;;;;;;-0.02;88.51;99128.42;2122923;83;21078;-81
2022/12/12 11:44:06;;;;;;;25.75;14.07;;;;;;;-0.05;87.85;99131.76;2094590;82;20978;-80
2022/12/12 11:47:37;;;;;;;27.48;14.13;;;;;;;-0.15;87.76;99127.73;2099824;82;21532;-80
2022/12/12 11:50:41;;;;;;;23.25;14.73;;;;;;;-0.19;87.90;99128.95;2098073;84;21041;-81
2022/12/12 11:53:44;;;;;;;24.12;14.93;;;;;;;-0.22;87.82;99131.80;2126999;83;21090;-81
2022/12/12 11:57:05;;;;;;;22.90;13.72;;;;;;;-0.23;88.07;99131.43;2126544;83;21004;-81
2022/12/12 12:00:22;;;;;;;23.15;13.70;;;;;;;-0.24;87.94;99140.21;2101182;82;21081;-81
2022/12/12 12:03:47;;;;;;;30.70;16.73;;;;;;;-0.28;87.51;99139.63;2121887;83;21587;-81
2022/12/12 12:07:21;;;;;;;31.50;17.12;;;;;;;-0.31;87.83;99147.70;2093788;82;21055;-82
2022/12/12 12:10:37;;;;;;;29.75;15.95;;;;;;;-0.30;87.87;99145.91;2128464;82;21054;-82
2022/12/12 12:13:59;;;;;;;28.30;15.15;;;;;;;-0.30;87.78;99145.91;2123687;83;21105;-82
2022/12/12 12:17:17;;;;;;;27.75;13.68;;;;;;;-0.31;87.63;99146.84;2118768;83;21501;-81
2022/12/12 12:20:46;;;;;;;27.62;14.45;;;;;;;-0.34;87.48;99147.95;2109653;83;21069;-81
2022/12/12 12:24:01;;;;;;;25.70;12.90;;;;;;;-0.37;87.51;99142.13;2125712;83;21592;-80
2022/12/12 12:27:42;;;;;;;28.17;15.13;;;;;;;-0.36;87.48;99149.02;2102256;84;21051;-80
2022/12/12 12:30:55;;;;;;;24.85;14.18;;;;;;;-0.37;87.38;99141.64;2094046;84;21121;-81
2022/12/12 12:34:18;;;;;;;27.52;14.68;;;;;;;-0.35;87.41;99148.05;2080770;84;21015;-81
2022/12/12 12:37:52;;;;;;;25.95;12.10;;;;;;;-0.35;87.25;99151.97;2117377;83;20999;-81
2022/12/12 12:41:05;;;;;;;26.05;14.05;;;;;;;-0.34;87.25;99157.52;2115482;83;21027;-81
2022/12/12 12:44:41;;;;;;;24.72;13.00;;;;;;;-0.35;87.20;99143.66;2067285;85;21063;-81
2022/12/12 12:47:53;;;;;;;24.15;12.93;;;;;;;-0.36;87.06;99151.62;2086386;84;21101;-81
2022/12/12 12:51:00;;;;;;;21.97;12.63;;;;;;;-0.40;86.97;99154.09;2114853;83;21078;-80
2022/12/12 12:54:26;;;;;;;23.00;12.25;;;;;;;-0.42;87.06;99154.69;2090860;84;21022;-80
2022/12/12 12:57:39;;;;;;;19.30;10.98;;;;;;;-0.44;86.89;99154.82;2094250;84;21058;-80
2022/12/12 13:00:41;;;;;;;22.05;11.57;;;;;;;-0.46;86.81;99158.84;2083900;84;21039;-80
2022/12/12 13:04:05;;;;;;;21.37;10.10;;;;;;;-0.48;86.71;99153.39;2076082;84;21506;-80
2022/12/12 13:07:34;;;;;;;20.52;9.85;;;;;;;-0.49;86.70;99162.98;2090795;84;21025;-80
2022/12/12 13:10:39;;;;;;;17.95;9.85;;;;;;;-0.52;86.55;99158.02;2086594;84;21014;-80
2022/12/12 13:13:44;;;;;;;18.20;9.18;;;;;;;-0.53;86.63;99166.80;2093367;84;21147;-80
2022/12/12 13:16:46;;;;;;;21.85;10.58;;;;;;;-0.52;86.53;99174.95;2058945;84;21065;-80
2022/12/12 13:19:52;;;;;;;14.28;8.63;;;;;;;-0.53;86.36;99168.58;2091727;84;21033;-80
2022/12/12 13:23:18;;;;;;;16.45;9.03;;;;;;;-0.54;86.16;99169.50;2087680;84;21074;-80
2022/12/12 13:26:47;;;;;;;14.03;8.55;;;;;;;-0.55;86.22;99185.63;2078380;84;21144;-80
2022/12/12 13:30:19;;;;;;;18.25;8.90;;;;;;;-0.54;86.07;99184.66;2086506;84;21077;-84
2022/12/12 13:33:38;;;;;;;16.30;8.40;;;;;;;-0.54;85.70;99187.75;2082961;84;21120;-79
2022/12/12 13:36:44;;;;;;;28.35;13.20;;;;;;;-0.54;85.72;99192.96;2093118;84;21149;-85
2022/12/12 13:39:46;;;;;;;15.85;8.98;;;;;;;-0.54;85.43;99192.48;2103420;83;21045;-83
2022/12/12 13:43:06;;;;;;;19.85;10.75;;;;;;;-0.55;85.40;99205.16;2106567;83;21431;-83
2022/12/12 13:46:33;;;;;;;23.45;12.95;;;;;;;-0.56;85.43;99200.91;2082729;84;21097;-84
2022/12/12 13:49:48;;;;;;;19.00;10.10;;;;;;;-0.57;85.37;99213.56;2086098;84;21041;-84
2022/12/12 13:53:10;;;;;;;14.53;8.85;;;;;;;-0.59;84.87;99214.18;2084706;84;21081;-82
2022/12/12 13:56:45;;;;;;;14.15;7.90;;;;;;;-0.58;85.08;99211.92;2105847;83;21075;-83
2022/12/12 14:00:01;;;;;;;19.62;8.35;;;;;;;-0.57;85.11;99212.74;2083633;83;21451;-84
2022/12/12 14:03:17;;;;;;;14.33;7.17;;;;;;;-0.60;84.93;99224.23;2086090;83;21561;-83
2022/12/12 14:06:19;;;;;;;19.70;7.80;;;;;;;-0.63;84.67;99214.05;2080223;83;21136;-83
2022/12/12 14:09:21;;;;;;;13.40;7.10;;;;;;;-0.65;84.41;99224.22;2088381;84;20989;-82
2022/12/12 14:12:34;;;;;;;13.72;7.55;;;;;;;-0.69;84.03;99214.52;2091199;83;21057;-83
2022/12/12 14:15:36;;;;;;;15.43;7.33;;;;;;;-0.75;84.07;99221.50;2091557;83;21150;-85
2022/12/12 14:18:52;;;;;;;16.57;8.95;;;;;;;-0.80;83.87;99214.50;2094666;83;21041;-84
2022/12/12 14:21:54;;;;;;;20.60;9.15;;;;;;;-0.85;83.99;99233.08;2093554;83;21496;-84
2022/12/12 14:25:16;;;;;;;23.83;10.93;;;;;;;-0.91;84.08;99234.84;2090925;84;21011;-85
2022/12/12 14:28:31;;;;;;;21.45;9.13;;;;;;;-0.94;83.88;99245.50;2092875;83;21008;-83
2022/12/12 14:31:37;;;;;;;22.30;9.58;;;;;;;-0.97;84.05;99250.94;2086860;83;21018;-83
2022/12/12 14:35:13;;;;;;;14.87;7.92;;;;;;;-0.99;84.08;99245.83;2101354;83;21042;-84
2022/12/12 14:38:31;;;;;;;20.40;8.95;;;;;;;-0.99;84.17;99251.52;2093122;84;20996;-83
2022/12/12 14:41:36;;;;;;;11.15;6.90;;;;;;;-0.99;84.25;99260.16;2095938;83;21523;-85
2022/12/12 14:44:42;;;;;;;24.65;10.18;;;;;;;-1.00;84.11;99255.90;2093842;84;21683;-84